sensor_id;sensor_type;location;lat;lon;timestamp;pressure;altitude;pressure_sealevel;temperature;humidity
59971;BME280;45825;45.434;9.116;2022-08-11T00:00:12;100563.06;;;27.42;36.23
59971;BME280;45825;45.434;9.116;2022-08-11T00:02:43;100562.03;;;27.43;36.01
59971;BME280;45825;45.434;9.116;2022-08-11T00:05:13;100560.34;;;27.42;36.15
59971;BME280;45825;45.434;9.116;2022-08-11T00:10:14;100574.25;;;27.39;36.46
59971;BME280;45825;45.434;9.116;2022-08-11T00:12:41;100572.19;;;27.41;36.26
59971;BME280;45825;45.434;9.116;2022-08-11T00:15:08;100578.22;;;27.43;36.41
59971;BME280;45825;45.434;9.116;2022-08-11T00:17:35;100580.53;;;27.46;36.86
59971;BME280;45825;45.434;9.116;2022-08-11T00:20:09;100586.97;;;27.45;36.95
59971;BME280;45825;45.434;9.116;2022-08-11T00:22:37;100589.03;;;27.43;36.98
59971;BME280;45825;45.434;9.116;2022-08-11T00:25:14;100584.00;;;27.40;37.39
59971;BME280;45825;45.434;9.116;2022-08-11T00:27:40;100593.97;;;27.39;37.06
59971;BME280;45825;45.434;9.116;2022-08-11T00:30:08;100592.69;;;27.35;37.24
59971;BME280;45825;45.434;9.116;2022-08-11T00:32:36;100594.44;;;27.28;37.64
59971;BME280;45825;45.434;9.116;2022-08-11T00:35:03;100596.97;;;27.29;37.40
59971;BME280;45825;45.434;9.116;2022-08-11T00:37:29;100599.69;;;27.29;37.77
59971;BME280;45825;45.434;9.116;2022-08-11T00:39:55;100598.34;;;27.25;37.61
59971;BME280;45825;45.434;9.116;2022-08-11T00:42:46;100596.88;;;27.23;38.00
59971;BME280;45825;45.434;9.116;2022-08-11T00:45:26;100596.41;;;27.19;37.64
59971;BME280;45825;45.434;9.116;2022-08-11T00:48:27;100594.28;;;27.14;37.87
59971;BME280;45825;45.434;9.116;2022-08-11T00:51:10;100596.97;;;27.14;37.80
59971;BME280;45825;45.434;9.116;2022-08-11T00:54:23;100600.06;;;27.11;38.00
59971;BME280;45825;45.434;9.116;2022-08-11T00:57:35;100604.59;;;27.11;38.07
59971;BME280;45825;45.434;9.116;2022-08-11T01:02:44;100592.69;;;27.05;38.11
59971;BME280;45825;45.434;9.116;2022-08-11T01:05:27;100594.66;;;27.11;38.50
59971;BME280;45825;45.434;9.116;2022-08-11T01:08:41;100595.31;;;26.98;38.87
59971;BME280;45825;45.434;9.116;2022-08-11T01:14:28;100596.31;;;26.97;38.95
59971;BME280;45825;45.434;9.116;2022-08-11T01:20:37;100606.75;;;27.00;38.82
59971;BME280;45825;45.434;9.116;2022-08-11T01:43:05;100596.03;;;26.92;39.71
59971;BME280;45825;45.434;9.116;2022-08-11T01:58:03;100604.84;;;26.86;40.64
59971;BME280;45825;45.434;9.116;2022-08-11T02:00:36;100595.63;;;26.80;41.05
59971;BME280;45825;45.434;9.116;2022-08-11T02:08:48;100592.38;;;26.85;41.27
59971;BME280;45825;45.434;9.116;2022-08-11T02:11:30;100588.00;;;26.84;41.14
59971;BME280;45825;45.434;9.116;2022-08-11T02:20:03;100590.19;;;26.88;41.53
59971;BME280;45825;45.434;9.116;2022-08-11T02:23:00;100584.94;;;26.87;41.94
59971;BME280;45825;45.434;9.116;2022-08-11T02:25:56;100590.34;;;26.87;42.08
59971;BME280;45825;45.434;9.116;2022-08-11T02:37:09;100590.41;;;26.78;41.91
59971;BME280;45825;45.434;9.116;2022-08-11T02:47:55;100585.63;;;26.66;42.73
59971;BME280;45825;45.434;9.116;2022-08-11T02:51:16;100583.41;;;26.69;42.70
59971;BME280;45825;45.434;9.116;2022-08-11T02:54:07;100580.38;;;26.72;42.68
59971;BME280;45825;45.434;9.116;2022-08-11T02:56:56;100579.91;;;26.69;42.20
59971;BME280;45825;45.434;9.116;2022-08-11T02:59:46;100579.25;;;26.67;42.36
59971;BME280;45825;45.434;9.116;2022-08-11T03:10:26;100578.50;;;26.73;42.12
59971;BME280;45825;45.434;9.116;2022-08-11T03:13:22;100578.03;;;26.69;42.13
59971;BME280;45825;45.434;9.116;2022-08-11T03:16:23;100579.34;;;26.73;42.24
59971;BME280;45825;45.434;9.116;2022-08-11T03:19:14;100569.09;;;26.69;42.48
59971;BME280;45825;45.434;9.116;2022-08-11T03:30:52;100577.44;;;26.59;42.61
59971;BME280;45825;45.434;9.116;2022-08-11T03:33:22;100571.22;;;26.58;42.71
59971;BME280;45825;45.434;9.116;2022-08-11T03:36:32;100581.16;;;26.58;42.80
59971;BME280;45825;45.434;9.116;2022-08-11T03:39:17;100573.94;;;26.58;42.80
59971;BME280;45825;45.434;9.116;2022-08-11T03:45:04;100578.69;;;26.56;42.71
59971;BME280;45825;45.434;9.116;2022-08-11T03:47:47;100584.25;;;26.55;42.88
59971;BME280;45825;45.434;9.116;2022-08-11T03:53:12;100581.16;;;26.58;42.84
59971;BME280;45825;45.434;9.116;2022-08-11T04:12:46;100586.97;;;26.31;43.33
59971;BME280;45825;45.434;9.116;2022-08-11T04:30:03;100578.69;;;26.33;43.44
59971;BME280;45825;45.434;9.116;2022-08-11T04:55:31;100603.47;;;26.36;44.46
59971;BME280;45825;45.434;9.116;2022-08-11T04:58:30;100602.66;;;26.28;44.92
59971;BME280;45825;45.434;9.116;2022-08-11T05:09:52;100623.78;;;26.24;46.18
59971;BME280;45825;45.434;9.116;2022-08-11T05:12:34;100623.41;;;26.27;46.31
59971;BME280;45825;45.434;9.116;2022-08-11T05:15:01;100618.94;;;26.19;46.86
59971;BME280;45825;45.434;9.116;2022-08-11T05:18:34;100621.09;;;26.16;46.99
59971;BME280;45825;45.434;9.116;2022-08-11T05:21:04;100615.41;;;26.11;47.49
59971;BME280;45825;45.434;9.116;2022-08-11T05:23:56;100617.91;;;26.20;46.86
59971;BME280;45825;45.434;9.116;2022-08-11T05:26:46;100616.91;;;26.13;47.26
59971;BME280;45825;45.434;9.116;2022-08-11T05:29:44;100614.22;;;26.13;46.91
59971;BME280;45825;45.434;9.116;2022-08-11T05:32:37;100610.31;;;26.16;46.80
59971;BME280;45825;45.434;9.116;2022-08-11T05:35:35;100613.53;;;26.19;46.86
59971;BME280;45825;45.434;9.116;2022-08-11T05:38:03;100615.22;;;26.12;47.20
59971;BME280;45825;45.434;9.116;2022-08-11T05:40:55;100617.97;;;26.04;47.28
59971;BME280;45825;45.434;9.116;2022-08-11T05:43:42;100615.94;;;26.06;47.05
59971;BME280;45825;45.434;9.116;2022-08-11T05:46:27;100615.59;;;26.09;47.14
59971;BME280;45825;45.434;9.116;2022-08-11T05:49:13;100608.34;;;26.09;46.99
59971;BME280;45825;45.434;9.116;2022-08-11T05:51:57;100614.03;;;26.15;46.92
59971;BME280;45825;45.434;9.116;2022-08-11T05:54:42;100622.53;;;26.03;47.24
59971;BME280;45825;45.434;9.116;2022-08-11T05:57:30;100616.78;;;26.06;47.05
59971;BME280;45825;45.434;9.116;2022-08-11T06:00:03;100629.97;;;26.01;47.35
59971;BME280;45825;45.434;9.116;2022-08-11T06:02:32;100620.50;;;26.05;47.58
59971;BME280;45825;45.434;9.116;2022-08-11T06:04:59;100621.41;;;25.98;47.60
59971;BME280;45825;45.434;9.116;2022-08-11T06:07:31;100621.06;;;25.92;47.82
59971;BME280;45825;45.434;9.116;2022-08-11T06:09:58;100626.50;;;25.84;48.24
59971;BME280;45825;45.434;9.116;2022-08-11T06:12:29;100627.84;;;25.88;48.32
59971;BME280;45825;45.434;9.116;2022-08-11T06:14:59;100626.47;;;25.92;48.57
59971;BME280;45825;45.434;9.116;2022-08-11T06:17:28;100618.88;;;25.96;48.57
59971;BME280;45825;45.434;9.116;2022-08-11T06:19:59;100624.59;;;26.01;48.54
59971;BME280;45825;45.434;9.116;2022-08-11T06:22:26;100628.75;;;26.04;48.82
59971;BME280;45825;45.434;9.116;2022-08-11T06:24:56;100620.13;;;26.08;48.72
59971;BME280;45825;45.434;9.116;2022-08-11T06:27:26;100621.16;;;26.07;48.37
59971;BME280;45825;45.434;9.116;2022-08-11T06:29:53;100615.06;;;26.14;48.29
59971;BME280;45825;45.434;9.116;2022-08-11T06:32:23;100613.97;;;26.00;48.84
59971;BME280;45825;45.434;9.116;2022-08-11T06:43:10;100609.28;;;26.25;48.07
59971;BME280;45825;45.434;9.116;2022-08-11T06:45:50;100613.09;;;26.31;47.86
59971;BME280;45825;45.434;9.116;2022-08-11T06:48:19;100609.38;;;26.32;47.64
59971;BME280;45825;45.434;9.116;2022-08-11T06:50:51;100609.59;;;26.45;47.31
59971;BME280;45825;45.434;9.116;2022-08-11T06:53:41;100610.63;;;26.44;46.91
59971;BME280;45825;45.434;9.116;2022-08-11T06:56:09;100614.47;;;26.50;47.07
59971;BME280;45825;45.434;9.116;2022-08-11T06:58:55;100620.16;;;26.55;47.01
59971;BME280;45825;45.434;9.116;2022-08-11T07:02:04;100620.16;;;26.70;46.97
59971;BME280;45825;45.434;9.116;2022-08-11T07:04:40;100617.22;;;26.80;46.29
59971;BME280;45825;45.434;9.116;2022-08-11T07:10:25;100619.53;;;26.83;46.27
59971;BME280;45825;45.434;9.116;2022-08-11T07:13:18;100625.50;;;26.78;46.14
59971;BME280;45825;45.434;9.116;2022-08-11T07:16:05;100619.94;;;26.80;45.67
59971;BME280;45825;45.434;9.116;2022-08-11T07:18:35;100619.03;;;26.88;44.98
59971;BME280;45825;45.434;9.116;2022-08-11T07:24:09;100618.03;;;27.04;44.70
59971;BME280;45825;45.434;9.116;2022-08-11T07:26:55;100613.09;;;27.08;44.52
59971;BME280;45825;45.434;9.116;2022-08-11T07:29:45;100615.16;;;27.05;44.75
59971;BME280;45825;45.434;9.116;2022-08-11T07:32:33;100616.72;;;27.15;44.31
59971;BME280;45825;45.434;9.116;2022-08-11T07:35:08;100615.16;;;27.05;44.37
59971;BME280;45825;45.434;9.116;2022-08-11T07:37:40;100616.91;;;27.13;44.83
59971;BME280;45825;45.434;9.116;2022-08-11T07:40:07;100611.03;;;27.10;44.85
59971;BME280;45825;45.434;9.116;2022-08-11T07:42:33;100616.25;;;27.11;44.74
59971;BME280;45825;45.434;9.116;2022-08-11T07:45:07;100614.03;;;27.15;44.33
59971;BME280;45825;45.434;9.116;2022-08-11T07:47:53;100615.59;;;27.24;44.20
59971;BME280;45825;45.434;9.116;2022-08-11T07:50:42;100609.53;;;27.22;44.42
59971;BME280;45825;45.434;9.116;2022-08-11T07:53:28;100608.59;;;27.30;43.90
59971;BME280;45825;45.434;9.116;2022-08-11T07:55:57;100600.78;;;27.35;43.50
59971;BME280;45825;45.434;9.116;2022-08-11T07:58:24;100602.00;;;27.32;43.17
59971;BME280;45825;45.434;9.116;2022-08-11T08:01:10;100606.47;;;27.25;43.91
59971;BME280;45825;45.434;9.116;2022-08-11T08:03:55;100600.78;;;27.35;43.93
59971;BME280;45825;45.434;9.116;2022-08-11T08:06:41;100607.94;;;27.43;43.66
59971;BME280;45825;45.434;9.116;2022-08-11T08:09:27;100601.59;;;27.51;42.61
59971;BME280;45825;45.434;9.116;2022-08-11T08:12:12;100595.22;;;27.37;42.73
59971;BME280;45825;45.434;9.116;2022-08-11T08:14:58;100603.94;;;27.39;42.39
59971;BME280;45825;45.434;9.116;2022-08-11T08:17:44;100599.91;;;27.50;41.40
59971;BME280;45825;45.434;9.116;2022-08-11T08:20:26;100597.69;;;27.53;39.79
59971;BME280;45825;45.434;9.116;2022-08-11T08:22:55;100595.47;;;27.57;40.52
59971;BME280;45825;45.434;9.116;2022-08-11T08:25:29;100594.91;;;27.61;41.34
59971;BME280;45825;45.434;9.116;2022-08-11T08:27:56;100599.53;;;27.53;40.68
59971;BME280;45825;45.434;9.116;2022-08-11T08:30:23;100592.19;;;27.61;40.02
59971;BME280;45825;45.434;9.116;2022-08-11T08:33:08;100596.47;;;27.71;40.38
59971;BME280;45825;45.434;9.116;2022-08-11T08:35:36;100591.38;;;27.83;39.75
59971;BME280;45825;45.434;9.116;2022-08-11T08:38:02;100592.28;;;27.90;39.65
59971;BME280;45825;45.434;9.116;2022-08-11T08:40:28;100590.88;;;27.94;39.27
59971;BME280;45825;45.434;9.116;2022-08-11T08:42:55;100591.59;;;27.81;39.86
59971;BME280;45825;45.434;9.116;2022-08-11T08:45:23;100588.56;;;27.91;40.26
59971;BME280;45825;45.434;9.116;2022-08-11T08:48:00;100585.09;;;27.97;39.90
59971;BME280;45825;45.434;9.116;2022-08-11T08:50:31;100581.03;;;28.08;39.34
59971;BME280;45825;45.434;9.116;2022-08-11T08:53:20;100589.72;;;28.03;38.88
59971;BME280;45825;45.434;9.116;2022-08-11T08:55:46;100585.88;;;28.13;39.09
59971;BME280;45825;45.434;9.116;2022-08-11T08:58:14;100584.81;;;27.92;37.95
59971;BME280;45825;45.434;9.116;2022-08-11T09:00:43;100585.22;;;28.11;37.42
59971;BME280;45825;45.434;9.116;2022-08-11T09:03:10;100577.72;;;28.28;37.38
59971;BME280;45825;45.434;9.116;2022-08-11T09:05:37;100578.25;;;28.45;37.25
59971;BME280;45825;45.434;9.116;2022-08-11T09:08:03;100571.53;;;28.34;37.81
59971;BME280;45825;45.434;9.116;2022-08-11T09:10:29;100583.22;;;28.41;37.59
59971;BME280;45825;45.434;9.116;2022-08-11T09:12:55;100577.50;;;28.51;37.63
59971;BME280;45825;45.434;9.116;2022-08-11T09:15:22;100568.47;;;28.44;37.27
59971;BME280;45825;45.434;9.116;2022-08-11T09:17:51;100572.63;;;28.40;36.61
59971;BME280;45825;45.434;9.116;2022-08-11T09:20:23;100575.88;;;28.57;36.56
59971;BME280;45825;45.434;9.116;2022-08-11T09:22:50;100580.69;;;28.62;36.59
59971;BME280;45825;45.434;9.116;2022-08-11T09:25:35;100570.25;;;28.58;36.34
59971;BME280;45825;45.434;9.116;2022-08-11T09:28:20;100573.53;;;28.82;36.46
59971;BME280;45825;45.434;9.116;2022-08-11T09:30:48;100568.59;;;28.93;35.25
59971;BME280;45825;45.434;9.116;2022-08-11T09:33:26;100567.88;;;28.77;36.55
59971;BME280;45825;45.434;9.116;2022-08-11T09:35:52;100569.31;;;28.73;36.45
59971;BME280;45825;45.434;9.116;2022-08-11T09:38:19;100562.81;;;28.96;36.70
59971;BME280;45825;45.434;9.116;2022-08-11T09:41:07;100562.28;;;29.14;36.29
59971;BME280;45825;45.434;9.116;2022-08-11T09:43:38;100560.84;;;29.25;36.18
59971;BME280;45825;45.434;9.116;2022-08-11T09:46:25;100558.00;;;29.40;36.09
59971;BME280;45825;45.434;9.116;2022-08-11T09:48:52;100553.47;;;29.47;35.67
59971;BME280;45825;45.434;9.116;2022-08-11T09:51:20;100547.28;;;29.74;35.76
59971;BME280;45825;45.434;9.116;2022-08-11T09:53:46;100551.22;;;29.58;35.95
59971;BME280;45825;45.434;9.116;2022-08-11T09:56:18;100541.06;;;30.00;35.53
59971;BME280;45825;45.434;9.116;2022-08-11T09:59:03;100542.06;;;29.86;35.60
59971;BME280;45825;45.434;9.116;2022-08-11T10:01:32;100534.38;;;29.96;35.57
59971;BME280;45825;45.434;9.116;2022-08-11T10:04:03;100534.38;;;29.96;35.74
59971;BME280;45825;45.434;9.116;2022-08-11T10:06:30;100532.06;;;29.86;35.77
59971;BME280;45825;45.434;9.116;2022-08-11T10:09:19;100528.94;;;29.82;35.79
59971;BME280;45825;45.434;9.116;2022-08-11T10:11:45;100517.69;;;30.33;36.03
59971;BME280;45825;45.434;9.116;2022-08-11T10:14:12;100520.63;;;30.38;34.80
59971;BME280;45825;45.434;9.116;2022-08-11T10:16:57;100514.75;;;30.75;34.55
59971;BME280;45825;45.434;9.116;2022-08-11T10:19:24;100520.59;;;30.78;34.89
59971;BME280;45825;45.434;9.116;2022-08-11T10:21:51;100514.59;;;30.36;34.49
59971;BME280;45825;45.434;9.116;2022-08-11T10:24:37;100507.78;;;30.92;34.10
59971;BME280;45825;45.434;9.116;2022-08-11T10:27:22;100504.56;;;31.55;33.79
59971;BME280;45825;45.434;9.116;2022-08-11T10:29:48;100503.13;;;31.52;32.39
59971;BME280;45825;45.434;9.116;2022-08-11T10:32:33;100498.06;;;30.64;34.02
59971;BME280;45825;45.434;9.116;2022-08-11T10:35:20;100491.97;;;31.28;33.37
59971;BME280;45825;45.434;9.116;2022-08-11T10:37:47;100481.63;;;32.27;32.34
59971;BME280;45825;45.434;9.116;2022-08-11T10:40:15;100484.03;;;32.98;31.16
59971;BME280;45825;45.434;9.116;2022-08-11T10:42:41;100485.59;;;33.67;30.96
59971;BME280;45825;45.434;9.116;2022-08-11T10:45:26;100476.56;;;34.33;29.78
59971;BME280;45825;45.434;9.116;2022-08-11T10:48:12;100472.72;;;34.46;28.93
59971;BME280;45825;45.434;9.116;2022-08-11T10:50:38;100477.25;;;35.05;29.13
59971;BME280;45825;45.434;9.116;2022-08-11T10:53:23;100475.56;;;34.51;27.62
59971;BME280;45825;45.434;9.116;2022-08-11T10:56:07;100464.06;;;35.02;27.37
59971;BME280;45825;45.434;9.116;2022-08-11T10:58:53;100467.19;;;34.52;27.56
59971;BME280;45825;45.434;9.116;2022-08-11T11:01:31;100457.13;;;34.82;27.95
59971;BME280;45825;45.434;9.116;2022-08-11T11:04:00;100456.75;;;35.65;28.14
59971;BME280;45825;45.434;9.116;2022-08-11T11:06:49;100454.53;;;35.62;26.80
59971;BME280;45825;45.434;9.116;2022-08-11T11:09:19;100443.66;;;33.80;28.08
59971;BME280;45825;45.434;9.116;2022-08-11T11:11:52;100447.66;;;34.73;27.93
59971;BME280;45825;45.434;9.116;2022-08-11T11:14:40;100448.63;;;35.88;27.13
59971;BME280;45825;45.434;9.116;2022-08-11T11:17:31;100437.06;;;36.42;26.02
59971;BME280;45825;45.434;9.116;2022-08-11T11:20:28;100440.38;;;36.22;26.38
59971;BME280;45825;45.434;9.116;2022-08-11T11:23:02;100441.00;;;36.07;26.43
59971;BME280;45825;45.434;9.116;2022-08-11T11:28:49;100437.44;;;36.51;24.85
59971;BME280;45825;45.434;9.116;2022-08-11T11:34:14;100426.53;;;36.73;23.90
59971;BME280;45825;45.434;9.116;2022-08-11T11:36:49;100420.06;;;37.07;24.84
59971;BME280;45825;45.434;9.116;2022-08-11T11:39:22;100420.72;;;36.70;24.26
59971;BME280;45825;45.434;9.116;2022-08-11T11:41:53;100412.09;;;37.06;24.51
59971;BME280;45825;45.434;9.116;2022-08-11T11:44:19;100406.16;;;37.19;24.43
59971;BME280;45825;45.434;9.116;2022-08-11T11:46:47;100406.78;;;36.71;24.97
59971;BME280;45825;45.434;9.116;2022-08-11T11:49:15;100410.50;;;36.87;25.01
59971;BME280;45825;45.434;9.116;2022-08-11T11:51:46;100399.28;;;37.49;24.89
59971;BME280;45825;45.434;9.116;2022-08-11T11:54:14;100406.81;;;37.31;23.81
59971;BME280;45825;45.434;9.116;2022-08-11T11:56:41;100404.91;;;36.55;25.26
59971;BME280;45825;45.434;9.116;2022-08-11T11:59:07;100402.31;;;36.20;24.79
59971;BME280;45825;45.434;9.116;2022-08-11T12:01:54;100401.53;;;35.51;24.91
59971;BME280;45825;45.434;9.116;2022-08-11T12:04:21;100394.88;;;36.60;24.44
59971;BME280;45825;45.434;9.116;2022-08-11T12:06:47;100394.31;;;35.45;25.18
59971;BME280;45825;45.434;9.116;2022-08-11T12:09:13;100387.16;;;36.13;24.84
59971;BME280;45825;45.434;9.116;2022-08-11T12:11:43;100395.25;;;35.34;25.55
59971;BME280;45825;45.434;9.116;2022-08-11T12:14:27;100378.03;;;36.52;24.10
59971;BME280;45825;45.434;9.116;2022-08-11T12:16:54;100382.13;;;36.71;23.48
59971;BME280;45825;45.434;9.116;2022-08-11T12:19:22;100383.28;;;37.36;23.45
59971;BME280;45825;45.434;9.116;2022-08-11T12:21:49;100385.47;;;36.79;23.73
59971;BME280;45825;45.434;9.116;2022-08-11T12:24:34;100381.91;;;36.78;22.83
59971;BME280;45825;45.434;9.116;2022-08-11T12:27:19;100376.53;;;36.88;23.81
59971;BME280;45825;45.434;9.116;2022-08-11T12:29:47;100371.88;;;37.49;23.64
59971;BME280;45825;45.434;9.116;2022-08-11T12:32:13;100373.03;;;36.66;24.25
59971;BME280;45825;45.434;9.116;2022-08-11T12:34:39;100379.25;;;36.16;25.08
59971;BME280;45825;45.434;9.116;2022-08-11T12:37:05;100368.00;;;35.96;24.97
59971;BME280;45825;45.434;9.116;2022-08-11T12:39:36;100362.09;;;35.30;25.72
59971;BME280;45825;45.434;9.116;2022-08-11T12:42:39;100368.19;;;35.20;25.90
59971;BME280;45825;45.434;9.116;2022-08-11T12:45:25;100359.41;;;34.72;26.14
59971;BME280;45825;45.434;9.116;2022-08-11T12:47:57;100345.28;;;35.95;25.85
59971;BME280;45825;45.434;9.116;2022-08-11T12:50:45;100347.78;;;36.19;24.77
59971;BME280;45825;45.434;9.116;2022-08-11T12:53:34;100346.25;;;35.15;25.20
59971;BME280;45825;45.434;9.116;2022-08-11T12:56:04;100336.41;;;35.65;24.52
59971;BME280;45825;45.434;9.116;2022-08-11T12:58:51;100336.69;;;36.26;24.12
59971;BME280;45825;45.434;9.116;2022-08-11T13:01:17;100339.25;;;35.93;24.45
59971;BME280;45825;45.434;9.116;2022-08-11T13:04:03;100335.28;;;34.81;25.22
59971;BME280;45825;45.434;9.116;2022-08-11T13:06:47;100328.06;;;34.92;25.39
59971;BME280;45825;45.434;9.116;2022-08-11T13:09:15;100339.81;;;34.34;25.49
59971;BME280;45825;45.434;9.116;2022-08-11T13:11:41;100325.81;;;34.72;26.02
59971;BME280;45825;45.434;9.116;2022-08-11T13:14:28;100319.53;;;34.88;26.40
59971;BME280;45825;45.434;9.116;2022-08-11T13:16:57;100306.66;;;35.69;25.89
59971;BME280;45825;45.434;9.116;2022-08-11T13:19:42;100313.50;;;36.11;24.69
59971;BME280;45825;45.434;9.116;2022-08-11T13:22:09;100313.31;;;34.76;25.66
59971;BME280;45825;45.434;9.116;2022-08-11T13:24:36;100303.25;;;35.45;25.03
59971;BME280;45825;45.434;9.116;2022-08-11T13:27:02;100304.25;;;35.04;25.88
59971;BME280;45825;45.434;9.116;2022-08-11T13:29:28;100305.41;;;35.43;25.46
59971;BME280;45825;45.434;9.116;2022-08-11T13:31:56;100293.34;;;35.78;25.26
59971;BME280;45825;45.434;9.116;2022-08-11T13:34:25;100288.66;;;35.96;25.03
59971;BME280;45825;45.434;9.116;2022-08-11T13:36:53;100291.09;;;34.55;26.27
59971;BME280;45825;45.434;9.116;2022-08-11T13:39:26;100295.13;;;34.23;26.50
59971;BME280;45825;45.434;9.116;2022-08-11T13:41:57;100293.38;;;34.05;26.84
59971;BME280;45825;45.434;9.116;2022-08-11T13:44:25;100290.66;;;34.34;26.47
59971;BME280;45825;45.434;9.116;2022-08-11T13:46:53;100272.84;;;34.90;26.07
59971;BME280;45825;45.434;9.116;2022-08-11T13:49:20;100277.41;;;35.01;25.79
59971;BME280;45825;45.434;9.116;2022-08-11T13:51:46;100269.94;;;34.96;25.97
59971;BME280;45825;45.434;9.116;2022-08-11T13:54:18;100267.22;;;34.50;25.87
59971;BME280;45825;45.434;9.116;2022-08-11T13:56:46;100261.72;;;34.04;26.89
59971;BME280;45825;45.434;9.116;2022-08-11T13:59:14;100256.41;;;33.74;27.46
59971;BME280;45825;45.434;9.116;2022-08-11T14:01:48;100253.22;;;33.53;27.30
59971;BME280;45825;45.434;9.116;2022-08-11T14:04:22;100251.53;;;33.76;26.94
59971;BME280;45825;45.434;9.116;2022-08-11T14:06:52;100250.81;;;34.04;26.49
59971;BME280;45825;45.434;9.116;2022-08-11T14:09:28;100246.66;;;34.02;26.77
59971;BME280;45825;45.434;9.116;2022-08-11T14:12:00;100237.41;;;34.32;26.49
59971;BME280;45825;45.434;9.116;2022-08-11T14:14:51;100239.03;;;33.92;26.98
59971;BME280;45825;45.434;9.116;2022-08-11T14:17:20;100239.59;;;33.41;27.42
59971;BME280;45825;45.434;9.116;2022-08-11T14:19:50;100233.56;;;33.51;27.40
59971;BME280;45825;45.434;9.116;2022-08-11T14:22:16;100237.31;;;33.85;26.99
59971;BME280;45825;45.434;9.116;2022-08-11T14:24:43;100230.69;;;34.22;27.42
59971;BME280;45825;45.434;9.116;2022-08-11T14:27:14;100228.72;;;34.06;27.00
59971;BME280;45825;45.434;9.116;2022-08-11T14:29:40;100223.00;;;33.54;27.62
59971;BME280;45825;45.434;9.116;2022-08-11T14:32:09;100226.63;;;33.84;27.63
59971;BME280;45825;45.434;9.116;2022-08-11T14:34:38;100217.38;;;33.85;27.47
59971;BME280;45825;45.434;9.116;2022-08-11T14:37:10;100207.44;;;34.20;27.60
59971;BME280;45825;45.434;9.116;2022-08-11T14:39:45;100218.72;;;34.11;27.21
59971;BME280;45825;45.434;9.116;2022-08-11T14:42:16;100211.91;;;33.85;27.08
59971;BME280;45825;45.434;9.116;2022-08-11T14:45:05;100211.66;;;33.46;27.19
59971;BME280;45825;45.434;9.116;2022-08-11T14:47:53;100209.03;;;33.27;27.38
59971;BME280;45825;45.434;9.116;2022-08-11T14:50:26;100208.41;;;33.37;27.44
59971;BME280;45825;45.434;9.116;2022-08-11T14:55:24;100201.97;;;33.79;27.34
59971;BME280;45825;45.434;9.116;2022-08-11T14:58:10;100204.78;;;33.96;27.49
59971;BME280;45825;45.434;9.116;2022-08-11T15:00:36;100196.09;;;34.11;27.52
59971;BME280;45825;45.434;9.116;2022-08-11T15:03:03;100192.94;;;34.19;27.38
59971;BME280;45825;45.434;9.116;2022-08-11T15:05:41;100189.47;;;33.95;27.70
59971;BME280;45825;45.434;9.116;2022-08-11T15:08:12;100195.53;;;33.56;27.17
59971;BME280;45825;45.434;9.116;2022-08-11T15:10:38;100185.34;;;33.51;27.71
59971;BME280;45825;45.434;9.116;2022-08-11T15:13:04;100186.63;;;33.37;27.63
59971;BME280;45825;45.434;9.116;2022-08-11T15:15:30;100183.22;;;33.17;27.80
59971;BME280;45825;45.434;9.116;2022-08-11T15:18:18;100182.47;;;32.74;28.16
59971;BME280;45825;45.434;9.116;2022-08-11T15:20:45;100182.16;;;32.95;28.00
59971;BME280;45825;45.434;9.116;2022-08-11T15:23:29;100177.19;;;32.92;27.26
59971;BME280;45825;45.434;9.116;2022-08-11T15:26:43;100177.13;;;32.80;27.85
59971;BME280;45825;45.434;9.116;2022-08-11T15:29:28;100173.34;;;32.81;28.20
59971;BME280;45825;45.434;9.116;2022-08-11T15:32:28;100169.28;;;32.71;28.08
59971;BME280;45825;45.434;9.116;2022-08-11T15:35:30;100174.81;;;32.41;27.74
59971;BME280;45825;45.434;9.116;2022-08-11T15:38:18;100174.75;;;32.29;28.23
59971;BME280;45825;45.434;9.116;2022-08-11T15:40:44;100169.44;;;32.34;28.33
59971;BME280;45825;45.434;9.116;2022-08-11T15:43:31;100171.19;;;32.59;28.28
59971;BME280;45825;45.434;9.116;2022-08-11T15:46:24;100166.00;;;32.69;28.25
59971;BME280;45825;45.434;9.116;2022-08-11T15:49:21;100163.59;;;32.49;28.02
59971;BME280;45825;45.434;9.116;2022-08-11T15:51:50;100162.16;;;32.46;28.27
59971;BME280;45825;45.434;9.116;2022-08-11T15:54:24;100161.22;;;32.41;27.62
59971;BME280;45825;45.434;9.116;2022-08-11T15:56:52;100157.41;;;32.42;27.98
59971;BME280;45825;45.434;9.116;2022-08-11T15:59:20;100156.28;;;32.61;27.94
59971;BME280;45825;45.434;9.116;2022-08-11T16:02:05;100151.38;;;32.40;28.48
59971;BME280;45825;45.434;9.116;2022-08-11T16:04:43;100156.13;;;32.44;28.20
59971;BME280;45825;45.434;9.116;2022-08-11T16:07:13;100153.88;;;32.41;28.47
59971;BME280;45825;45.434;9.116;2022-08-11T16:09:45;100154.22;;;32.45;29.03
59971;BME280;45825;45.434;9.116;2022-08-11T16:12:16;100149.38;;;32.04;29.27
59971;BME280;45825;45.434;9.116;2022-08-11T16:14:44;100149.59;;;32.03;29.36
59971;BME280;45825;45.434;9.116;2022-08-11T16:17:35;100138.59;;;32.10;29.21
59971;BME280;45825;45.434;9.116;2022-08-11T16:20:02;100142.28;;;32.15;29.59
59971;BME280;45825;45.434;9.116;2022-08-11T16:22:32;100148.63;;;31.97;29.44
59971;BME280;45825;45.434;9.116;2022-08-11T16:25:06;100141.94;;;31.81;30.07
59971;BME280;45825;45.434;9.116;2022-08-11T16:27:35;100141.41;;;31.72;29.76
59971;BME280;45825;45.434;9.116;2022-08-11T16:30:03;100136.34;;;31.76;30.00
59971;BME280;45825;45.434;9.116;2022-08-11T16:32:30;100132.69;;;31.63;29.80
59971;BME280;45825;45.434;9.116;2022-08-11T16:35:00;100119.09;;;31.63;29.98
59971;BME280;45825;45.434;9.116;2022-08-11T16:37:45;100124.19;;;31.60;29.74
59971;BME280;45825;45.434;9.116;2022-08-11T16:40:30;100116.66;;;31.43;29.91